Time;durP1;ratioP1;P1;durP2;ratioP2;P2;SDS_P1;SDS_P2;PMS_P1;PMS_P2;Temp;Humidity;BMP_temperature;BMP_pressure;BME280_temperature;BME280_humidity;BME280_pressure;Samples;Min_cycle;Max_cycle;Signal;HPM_P1;HPM_P2
2021/09/18 00:00:03;;;;;;;32.10;21.13;;;13.80;99.90;;;;;;6092472;23;20014;-89
2021/09/18 00:02:30;;;;;;;30.27;20.48;;;13.80;99.90;;;;;;6116459;23;20010;-88
2021/09/18 00:05:10;;;;;;;27.23;19.33;;;13.80;99.90;;;;;;6092187;23;20025;-89
2021/09/18 00:07:36;;;;;;;29.85;20.63;;;13.80;99.90;;;;;;6092710;23;20014;-88
2021/09/18 00:10:02;;;;;;;30.23;21.48;;;13.80;99.90;;;;;;6092220;23;20006;-88
2021/09/18 00:12:28;;;;;;;29.48;19.92;;;13.90;99.90;;;;;;6115799;23;20020;-88
2021/09/18 00:15:01;;;;;;;28.92;20.23;;;13.90;99.90;;;;;;6092166;23;20010;-88
2021/09/18 00:17:27;;;;;;;30.45;20.77;;;13.90;99.90;;;;;;6092130;23;20002;-88
2021/09/18 00:19:52;;;;;;;30.48;21.25;;;13.80;99.90;;;;;;6091899;23;20055;-88
2021/09/18 00:22:18;;;;;;;28.33;20.70;;;13.80;99.90;;;;;;6091816;23;20006;-88
2021/09/18 00:24:44;;;;;;;29.38;20.10;;;13.70;99.90;;;;;;6091827;23;20053;-87
2021/09/18 00:27:09;;;;;;;24.95;18.30;;;13.80;99.90;;;;;;6092271;23;20009;-88
2021/09/18 00:29:35;;;;;;;28.17;18.98;;;13.60;99.90;;;;;;6115915;23;20014;-88
2021/09/18 00:32:01;;;;;;;27.58;19.80;;;13.50;99.90;;;;;;6092009;23;20012;-89
2021/09/18 00:34:26;;;;;;;29.23;20.42;;;13.50;99.90;;;;;;6091837;23;20468;-88
2021/09/18 00:36:52;;;;;;;27.23;20.65;;;13.50;99.90;;;;;;6091756;23;20006;-88
2021/09/18 00:39:18;;;;;;;26.60;19.38;;;13.50;99.90;;;;;;6115661;23;20427;-88
2021/09/18 00:41:43;;;;;;;29.25;20.13;;;13.60;99.90;;;;;;6091425;23;20053;-87
2021/09/18 00:44:16;;;;;;;28.80;19.77;;;13.60;99.90;;;;;;6091441;23;20037;-87
2021/09/18 00:46:42;;;;;;;28.83;20.70;;;13.40;99.90;;;;;;6086594;23;20025;-88
2021/09/18 00:49:07;;;;;;;26.55;19.08;;;13.40;99.90;;;;;;6063026;23;20010;-89
2021/09/18 00:51:33;;;;;;;26.60;19.83;;;13.40;99.90;;;;;;6086406;23;20003;-88
2021/09/18 00:53:59;;;;;;;26.85;19.50;;;13.40;99.90;;;;;;6086828;23;20006;-88
2021/09/18 00:56:26;;;;;;;28.73;20.02;;;13.30;99.90;;;;;;6062716;23;20038;-88
2021/09/18 00:58:51;;;;;;;26.55;18.20;;;13.20;99.90;;;;;;6086897;23;20026;-88
2021/09/18 01:01:17;;;;;;;25.67;18.02;;;13.20;99.90;;;;;;6062516;23;20042;-88
2021/09/18 01:03:44;;;;;;;28.67;19.27;;;13.10;99.90;;;;;;6063039;23;20458;-88
2021/09/18 01:06:12;;;;;;;27.75;19.88;;;13.20;99.90;;;;;;6062379;23;20006;-88
2021/09/18 01:08:40;;;;;;;28.88;19.55;;;13.30;99.90;;;;;;6086621;23;20010;-87
2021/09/18 01:11:06;;;;;;;25.17;18.13;;;13.30;99.90;;;;;;6062591;23;20034;-88
2021/09/18 01:13:33;;;;;;;23.67;16.77;;;13.30;99.90;;;;;;6062642;23;20010;-87
2021/09/18 01:15:59;;;;;;;25.35;18.35;;;13.20;99.90;;;;;;6062579;23;20010;-88
2021/09/18 01:18:24;;;;;;;22.42;16.05;;;13.10;99.90;;;;;;6086843;23;20014;-88
2021/09/18 01:20:50;;;;;;;21.05;15.55;;;13.10;99.90;;;;;;6062730;23;20065;-88
2021/09/18 01:23:25;;;;;;;23.88;16.42;;;13.10;99.90;;;;;;6086011;23;20332;-88
2021/09/18 01:25:53;;;;;;;25.27;17.23;;;13.10;99.90;;;;;;6085979;23;20014;-88
2021/09/18 01:28:18;;;;;;;26.80;18.20;;;13.10;99.90;;;;;;6062515;23;20006;-88
2021/09/18 01:30:45;;;;;;;26.63;18.35;;;13.00;99.90;;;;;;6062647;23;20062;-88
2021/09/18 01:33:11;;;;;;;28.60;18.45;;;12.90;99.90;;;;;;6062363;23;20608;-87
2021/09/18 01:35:44;;;;;;;29.17;18.38;;;12.90;99.90;;;;;;6110411;23;20006;-89
2021/09/18 01:38:09;;;;;;;28.90;19.92;;;12.90;99.90;;;;;;6062297;23;20089;-88
2021/09/18 01:40:38;;;;;;;27.00;18.73;;;12.90;99.90;;;;;;6086735;23;20014;-87
2021/09/18 01:43:05;;;;;;;27.20;19.67;;;12.90;99.90;;;;;;6085984;23;20018;-88
2021/09/18 01:45:31;;;;;;;25.63;18.23;;;12.90;99.90;;;;;;6092171;23;20037;-88
2021/09/18 01:48:00;;;;;;;22.23;17.60;;;12.90;99.90;;;;;;6115525;23;20006;-88
2021/09/18 01:50:47;;;;;;;25.17;17.50;;;12.90;99.90;;;;;;6115215;23;20453;-88
2021/09/18 01:53:16;;;;;;;22.58;15.98;;;13.00;99.90;;;;;;6091249;23;20013;-89
2021/09/18 01:55:53;;;;;;;21.73;15.40;;;12.90;99.90;;;;;;6091446;23;20021;-88
2021/09/18 01:58:19;;;;;;;22.77;15.80;;;12.80;99.90;;;;;;6091215;23;20017;-88
2021/09/18 02:00:48;;;;;;;21.70;15.38;;;12.90;99.90;;;;;;6091284;23;20053;-88
2021/09/18 02:03:14;;;;;;;21.42;15.25;;;12.90;99.90;;;;;;6091085;23;20021;-89
2021/09/18 02:05:48;;;;;;;23.27;15.25;;;12.90;99.90;;;;;;6091344;23;20014;-88
2021/09/18 02:08:14;;;;;;;22.98;16.42;;;12.80;99.90;;;;;;6115318;23;20006;-88
2021/09/18 02:10:40;;;;;;;26.85;17.48;;;12.80;99.90;;;;;;6115555;23;20070;-90
2021/09/18 02:13:09;;;;;;;30.88;18.73;;;12.70;99.90;;;;;;6091265;23;20006;-85
2021/09/18 02:15:36;;;;;;;27.15;17.85;;;12.70;99.90;;;;;;6114949;23;20069;-87
2021/09/18 02:18:02;;;;;;;31.27;18.55;;;12.70;99.90;;;;;;6091080;23;20041;-86
2021/09/18 02:20:29;;;;;;;26.20;15.32;;;12.70;99.90;;;;;;6091182;23;20006;-86
2021/09/18 02:22:56;;;;;;;23.35;16.85;;;12.70;99.90;;;;;;6090481;23;20033;-87
2021/09/18 02:25:27;;;;;;;23.25;17.25;;;12.60;99.90;;;;;;6091112;23;20447;-87
2021/09/18 02:27:53;;;;;;;23.23;16.98;;;12.50;99.90;;;;;;6091088;23;20010;-86
2021/09/18 02:30:25;;;;;;;20.30;15.07;;;12.50;99.90;;;;;;6091255;23;20013;-86
2021/09/18 02:32:52;;;;;;;19.05;15.45;;;12.50;99.90;;;;;;6090562;23;20013;-88
2021/09/18 02:35:20;;;;;;;18.45;14.70;;;12.50;99.90;;;;;;6092432;23;20006;-88
2021/09/18 02:37:48;;;;;;;16.80;14.07;;;12.40;99.90;;;;;;6091761;23;20017;-88
2021/09/18 02:40:15;;;;;;;17.83;14.93;;;12.30;99.90;;;;;;6116682;23;20038;-88
2021/09/18 02:42:43;;;;;;;16.30;13.75;;;12.30;99.90;;;;;;6116196;23;20025;-88
2021/09/18 02:45:09;;;;;;;17.30;13.30;;;12.30;99.90;;;;;;6091739;23;20040;-85
2021/09/18 02:47:35;;;;;;;16.48;13.38;;;12.20;99.90;;;;;;6091733;23;20010;-87
2021/09/18 02:50:02;;;;;;;16.05;13.50;;;12.20;99.90;;;;;;6094218;23;20025;-88
2021/09/18 02:52:28;;;;;;;17.90;13.63;;;12.20;99.90;;;;;;6093445;23;20006;-88
2021/09/18 02:54:53;;;;;;;21.50;14.82;;;12.20;99.90;;;;;;6117830;23;20017;-89
2021/09/18 02:57:19;;;;;;;17.38;13.52;;;12.20;99.90;;;;;;6116168;23;20057;-89
2021/09/18 02:59:44;;;;;;;21.85;15.23;;;12.10;99.90;;;;;;6116126;23;20368;-89
2021/09/18 03:02:10;;;;;;;19.33;14.02;;;12.10;99.90;;;;;;6092054;23;20025;-88
2021/09/18 03:04:35;;;;;;;16.63;12.65;;;12.10;99.90;;;;;;6116101;23;20014;-89
2021/09/18 03:07:02;;;;;;;20.48;14.57;;;12.20;99.90;;;;;;6115873;23;20002;-89
2021/09/18 03:09:27;;;;;;;16.95;12.80;;;12.30;99.90;;;;;;6116318;23;20006;-89
2021/09/18 03:11:53;;;;;;;19.80;14.57;;;12.30;99.90;;;;;;6115916;23;20006;-89
2021/09/18 03:14:19;;;;;;;19.05;13.57;;;12.40;99.90;;;;;;6115906;23;20021;-89
2021/09/18 03:16:44;;;;;;;17.73;11.35;;;12.60;99.90;;;;;;6116147;23;20010;-89
2021/09/18 03:19:10;;;;;;;15.30;10.45;;;12.70;99.90;;;;;;6115928;23;20066;-90
2021/09/18 03:21:35;;;;;;;13.60;9.60;;;12.70;99.90;;;;;;6115760;23;20006;-90
2021/09/18 03:24:01;;;;;;;13.57;9.48;;;12.90;99.90;;;;;;6115865;23;20018;-89
2021/09/18 03:26:27;;;;;;;11.93;8.02;;;12.90;99.90;;;;;;6092139;23;20017;-89
2021/09/18 03:28:53;;;;;;;13.57;8.90;;;13.00;99.90;;;;;;6115827;23;20010;-89
2021/09/18 03:31:19;;;;;;;12.82;8.38;;;13.00;99.90;;;;;;6092048;23;20078;-91
2021/09/18 03:33:45;;;;;;;10.57;7.65;;;13.00;99.90;;;;;;6115859;23;20005;-90
2021/09/18 03:36:11;;;;;;;10.60;8.10;;;13.00;99.90;;;;;;6115631;23;20064;-90
2021/09/18 03:38:37;;;;;;;9.75;7.03;;;13.10;99.90;;;;;;6115761;23;20006;-91
2021/09/18 03:41:03;;;;;;;10.02;7.00;;;13.10;99.90;;;;;;6115312;23;20013;-91
2021/09/18 03:43:28;;;;;;;14.27;8.07;;;13.00;99.90;;;;;;6115743;23;20054;-90
2021/09/18 03:45:54;;;;;;;9.52;6.45;;;13.10;99.90;;;;;;6141364;23;20067;-90
2021/09/18 03:48:20;;;;;;;11.82;7.22;;;13.10;99.90;;;;;;6115660;23;20006;-89
2021/09/18 03:50:46;;;;;;;10.98;7.15;;;13.10;99.90;;;;;;6141733;23;19998;-90
2021/09/18 03:53:12;;;;;;;7.35;5.88;;;13.00;99.90;;;;;;6115924;23;20013;-90
2021/09/18 03:55:37;;;;;;;9.18;6.78;;;13.00;99.90;;;;;;6115728;23;20049;-91
2021/09/18 03:58:03;;;;;;;7.68;6.30;;;13.00;99.90;;;;;;6115522;23;20014;-90
2021/09/18 04:00:29;;;;;;;10.73;5.55;;;13.00;99.90;;;;;;6091778;23;20026;-90
2021/09/18 04:02:54;;;;;;;7.75;6.28;;;13.00;99.90;;;;;;6115560;23;20010;-90
2021/09/18 04:05:20;;;;;;;12.95;5.60;;;13.00;99.90;;;;;;6141593;23;20721;-90
2021/09/18 04:07:46;;;;;;;10.88;8.23;;;12.90;99.90;;;;;;6091779;23;20038;-92
2021/09/18 04:10:11;;;;;;;26.85;9.27;;;12.90;99.90;;;;;;6091276;23;20065;-89
2021/09/18 04:12:38;;;;;;;9.30;5.10;;;12.90;99.90;;;;;;6115239;23;20009;-90
2021/09/18 04:15:04;;;;;;;12.55;6.57;;;13.00;99.90;;;;;;6115621;23;20006;-89
2021/09/18 04:17:30;;;;;;;9.73;4.88;;;13.00;99.90;;;;;;6115777;23;20017;-90
2021/09/18 04:19:55;;;;;;;10.60;7.45;;;13.00;99.90;;;;;;6091837;23;20006;-90
2021/09/18 04:22:21;;;;;;;9.55;6.68;;;13.00;99.90;;;;;;6115342;23;20077;-89
2021/09/18 04:24:46;;;;;;;9.60;5.93;;;13.10;99.90;;;;;;6114921;23;20056;-89
2021/09/18 04:27:12;;;;;;;8.50;6.13;;;13.10;99.90;;;;;;6115269;23;20013;-89
2021/09/18 04:29:38;;;;;;;6.70;5.05;;;13.10;99.90;;;;;;6114948;23;20006;-89
2021/09/18 04:32:04;;;;;;;9.00;5.45;;;13.20;99.90;;;;;;6091347;23;20006;-89
2021/09/18 04:34:30;;;;;;;8.20;5.57;;;13.20;99.90;;;;;;6115126;23;20006;-89
2021/09/18 04:36:56;;;;;;;9.25;6.18;;;13.10;99.90;;;;;;6091625;23;20101;-88
2021/09/18 04:39:23;;;;;;;8.13;5.30;;;13.20;99.90;;;;;;6115739;23;20013;-88
2021/09/18 04:41:49;;;;;;;9.45;6.28;;;13.20;99.90;;;;;;6115141;23;20002;-89
2021/09/18 04:44:15;;;;;;;10.48;6.55;;;13.20;99.90;;;;;;6114589;23;20014;-88
2021/09/18 04:46:41;;;;;;;9.60;6.57;;;13.30;99.90;;;;;;6091030;23;20028;-89
2021/09/18 04:49:06;;;;;;;9.73;5.43;;;13.20;99.90;;;;;;6115150;23;20010;-90
2021/09/18 04:51:32;;;;;;;15.30;7.45;;;13.10;99.90;;;;;;6115148;23;20093;-89
2021/09/18 04:53:58;;;;;;;8.85;4.82;;;13.20;99.90;;;;;;6115405;23;20029;-89
2021/09/18 04:56:23;;;;;;;14.50;7.97;;;13.20;99.90;;;;;;6114765;23;20012;-89
2021/09/18 04:58:49;;;;;;;14.20;8.25;;;13.20;99.90;;;;;;6114902;23;20010;-89
2021/09/18 05:01:15;;;;;;;9.77;8.13;;;13.10;99.90;;;;;;6091044;23;20010;-89
2021/09/18 05:03:40;;;;;;;18.23;7.50;;;13.20;99.90;;;;;;6090998;23;20010;-89
2021/09/18 05:06:06;;;;;;;10.00;7.63;;;13.20;99.90;;;;;;6114876;23;20082;-89
2021/09/18 05:08:31;;;;;;;29.00;7.97;;;13.20;99.90;;;;;;6091267;23;20006;-89
2021/09/18 05:10:57;;;;;;;16.73;8.27;;;13.20;99.90;;;;;;6090776;23;20514;-89
2021/09/18 05:13:23;;;;;;;9.52;7.80;;;13.20;99.90;;;;;;6090881;23;20005;-89
2021/09/18 05:15:48;;;;;;;9.63;7.50;;;13.30;99.90;;;;;;6088869;23;20077;-90
2021/09/18 05:18:14;;;;;;;11.40;7.80;;;13.30;99.90;;;;;;6115069;23;20010;-89
2021/09/18 05:20:39;;;;;;;9.85;7.70;;;13.40;99.90;;;;;;6090744;23;20431;-90
2021/09/18 05:23:05;;;;;;;10.13;7.65;;;13.40;99.90;;;;;;6114297;23;20005;-90
2021/09/18 05:25:30;;;;;;;11.45;8.80;;;13.30;99.90;;;;;;6090719;23;20028;-90
2021/09/18 05:27:56;;;;;;;20.38;9.80;;;13.40;99.90;;;;;;6090952;23;20030;-90
2021/09/18 05:30:22;;;;;;;16.92;10.25;;;13.40;99.90;;;;;;6114455;23;20006;-90
2021/09/18 05:32:47;;;;;;;17.38;12.23;;;13.40;99.90;;;;;;6114294;23;20012;-89
2021/09/18 05:35:13;;;;;;;12.20;9.18;;;13.30;99.90;;;;;;6114054;23;20036;-89
2021/09/18 05:37:39;;;;;;;12.48;10.13;;;13.40;99.90;;;;;;6113866;23;20006;-90
2021/09/18 05:40:05;;;;;;;17.00;9.68;;;13.50;99.90;;;;;;6113858;23;20057;-89
2021/09/18 05:42:31;;;;;;;11.13;9.30;;;13.50;99.90;;;;;;6113759;23;20018;-89
2021/09/18 05:44:56;;;;;;;14.52;7.85;;;13.50;99.90;;;;;;6112773;23;20014;-89
2021/09/18 05:47:22;;;;;;;26.17;9.85;;;13.50;99.90;;;;;;6113464;23;20014;-89
2021/09/18 05:49:48;;;;;;;12.48;8.90;;;13.60;99.90;;;;;;6113970;23;20020;-89
2021/09/18 05:52:13;;;;;;;12.40;8.45;;;13.70;99.90;;;;;;6089481;23;20009;-89
2021/09/18 05:54:39;;;;;;;12.50;9.52;;;13.70;99.90;;;;;;6089923;23;20343;-89
2021/09/18 05:57:05;;;;;;;22.13;10.90;;;13.70;99.90;;;;;;6089393;23;20002;-89
2021/09/18 05:59:30;;;;;;;14.50;10.55;;;13.80;99.90;;;;;;6113368;23;20002;-90
2021/09/18 06:01:56;;;;;;;11.43;9.68;;;13.80;99.90;;;;;;6089357;23;20006;-89
2021/09/18 06:04:22;;;;;;;11.75;9.48;;;13.80;99.90;;;;;;6113875;23;20033;-89
2021/09/18 06:06:47;;;;;;;11.32;8.65;;;13.80;99.90;;;;;;6089792;23;20014;-89
2021/09/18 06:09:13;;;;;;;12.07;9.25;;;13.90;99.90;;;;;;6090431;23;20017;-90
2021/09/18 06:11:38;;;;;;;12.88;9.77;;;13.90;99.90;;;;;;6091193;23;20084;-88
2021/09/18 06:14:04;;;;;;;11.55;8.80;;;13.90;99.90;;;;;;6115320;23;20542;-88
2021/09/18 06:16:30;;;;;;;17.58;9.43;;;14.00;99.90;;;;;;6091220;23;20033;-88
2021/09/18 06:18:55;;;;;;;11.77;9.15;;;14.00;99.90;;;;;;6115675;23;20005;-88
2021/09/18 06:21:22;;;;;;;11.63;8.98;;;14.00;99.90;;;;;;6115350;23;20017;-88
2021/09/18 06:23:48;;;;;;;17.25;9.30;;;14.10;99.90;;;;;;6115532;23;20021;-87
2021/09/18 06:26:16;;;;;;;18.15;10.68;;;14.10;99.90;;;;;;6139543;23;20006;-88
2021/09/18 06:28:43;;;;;;;12.98;9.57;;;14.10;99.90;;;;;;6115190;23;20010;-88
2021/09/18 06:31:09;;;;;;;15.55;9.38;;;14.10;99.90;;;;;;6115413;23;20010;-88
2021/09/18 06:33:34;;;;;;;12.05;8.88;;;14.20;99.90;;;;;;6091515;23;20443;-88
2021/09/18 06:36:00;;;;;;;18.00;8.93;;;14.20;99.90;;;;;;6115595;23;20057;-87
2021/09/18 06:38:26;;;;;;;11.65;9.35;;;14.10;99.90;;;;;;6091109;23;20089;-86
2021/09/18 06:40:55;;;;;;;15.80;9.23;;;14.20;99.90;;;;;;6115391;23;20466;-86
2021/09/18 06:43:22;;;;;;;14.93;9.43;;;14.20;99.90;;;;;;6114859;23;20096;-87
2021/09/18 06:45:48;;;;;;;12.30;9.48;;;14.10;99.90;;;;;;6114939;23;20037;-86
2021/09/18 06:48:14;;;;;;;12.38;9.88;;;14.20;99.90;;;;;;6115191;23;20002;-86
2021/09/18 06:50:40;;;;;;;14.20;10.68;;;14.20;99.90;;;;;;6091029;23;20016;-86
2021/09/18 06:53:09;;;;;;;12.05;9.40;;;14.30;99.90;;;;;;6091029;23;20013;-86
2021/09/18 06:55:36;;;;;;;12.52;10.13;;;14.30;99.90;;;;;;6115461;23;20254;-87
2021/09/18 06:58:02;;;;;;;11.30;9.18;;;14.30;99.90;;;;;;6090855;23;20002;-86
2021/09/18 07:00:28;;;;;;;12.38;8.57;;;14.30;99.90;;;;;;6115341;23;20005;-86
2021/09/18 07:02:54;;;;;;;13.05;9.85;;;14.30;99.90;;;;;;6139156;23;20033;-86
2021/09/18 07:05:20;;;;;;;14.82;8.15;;;14.30;99.90;;;;;;6090561;23;20021;-86
2021/09/18 07:07:46;;;;;;;12.00;9.40;;;14.30;99.90;;;;;;6114594;23;20029;-86
2021/09/18 07:10:12;;;;;;;10.63;8.60;;;14.40;99.90;;;;;;6141283;23;20020;-86
2021/09/18 07:12:39;;;;;;;11.23;9.23;;;14.50;99.90;;;;;;6114983;23;20028;-86
2021/09/18 07:15:05;;;;;;;11.02;9.25;;;14.60;99.90;;;;;;6114914;23;20081;-86
2021/09/18 07:17:31;;;;;;;10.80;9.20;;;14.60;99.90;;;;;;6114910;23;20025;-85
2021/09/18 07:19:58;;;;;;;11.32;9.43;;;14.70;99.90;;;;;;6090832;23;20002;-86
2021/09/18 07:22:27;;;;;;;17.05;10.25;;;14.70;99.90;;;;;;6114671;23;20006;-86
2021/09/18 07:24:54;;;;;;;11.30;7.72;;;14.70;99.90;;;;;;6090760;23;20025;-86
2021/09/18 07:27:20;;;;;;;17.90;12.02;;;14.70;99.90;;;;;;6114531;23;20010;-86
2021/09/18 07:29:46;;;;;;;15.63;11.90;;;14.50;99.90;;;;;;6114913;23;20018;-86
2021/09/18 07:32:12;;;;;;;19.27;10.75;;;14.60;99.90;;;;;;6115210;23;20017;-86
2021/09/18 07:34:38;;;;;;;14.77;11.60;;;14.70;99.90;;;;;;6116983;23;20006;-87
2021/09/18 07:37:05;;;;;;;27.38;12.85;;;14.70;99.90;;;;;;6092022;23;20097;-87
2021/09/18 07:39:31;;;;;;;15.15;12.15;;;14.50;99.90;;;;;;6115864;23;20016;-87
2021/09/18 07:41:57;;;;;;;15.30;10.90;;;14.60;99.90;;;;;;6114356;23;20013;-87
2021/09/18 07:44:24;;;;;;;21.10;10.48;;;14.70;99.90;;;;;;6090240;23;20018;-87
2021/09/18 07:46:49;;;;;;;19.00;12.45;;;14.70;99.90;;;;;;6114523;23;20018;-87
2021/09/18 07:49:16;;;;;;;20.92;14.90;;;14.60;99.90;;;;;;6114591;23;20529;-88
2021/09/18 07:51:42;;;;;;;19.40;15.35;;;14.50;99.90;;;;;;6114207;23;20006;-88
2021/09/18 07:54:08;;;;;;;23.42;14.50;;;14.60;99.90;;;;;;6090365;23;20021;-87
2021/09/18 07:56:34;;;;;;;20.73;15.50;;;14.60;99.90;;;;;;6090366;23;20058;-88
2021/09/18 07:58:59;;;;;;;14.40;11.65;;;14.60;99.90;;;;;;6090276;23;20010;-87
2021/09/18 08:01:27;;;;;;;18.38;13.13;;;14.90;99.90;;;;;;6114355;23;20020;-87
2021/09/18 08:03:58;;;;;;;17.35;12.70;;;15.00;99.90;;;;;;6113345;23;20022;-86
2021/09/18 08:06:25;;;;;;;14.15;10.10;;;15.10;99.90;;;;;;6113943;23;20029;-87
2021/09/18 08:08:51;;;;;;;17.13;12.73;;;15.20;99.90;;;;;;6090144;23;20093;-87
2021/09/18 08:11:19;;;;;;;27.60;12.63;;;15.10;99.90;;;;;;6090681;23;20006;-86
2021/09/18 08:13:45;;;;;;;19.65;12.57;;;15.20;99.90;;;;;;6114580;23;20077;-87
2021/09/18 08:16:13;;;;;;;11.20;7.68;;;15.10;99.90;;;;;;6090950;23;20009;-88
2021/09/18 08:18:39;;;;;;;25.83;15.77;;;15.20;99.90;;;;;;6091561;23;20009;-87
2021/09/18 08:21:04;;;;;;;17.17;13.38;;;15.10;99.90;;;;;;6115244;23;20006;-87
2021/09/18 08:23:30;;;;;;;20.35;14.30;;;15.30;99.90;;;;;;6115225;23;20026;-87
2021/09/18 08:26:03;;;;;;;19.02;13.55;;;15.50;99.90;;;;;;6115261;23;20010;-87
2021/09/18 08:28:28;;;;;;;20.23;14.05;;;15.50;99.90;;;;;;6115199;23;20005;-87
2021/09/18 08:30:54;;;;;;;19.20;14.15;;;15.60;99.90;;;;;;6115281;23;20006;-87
2021/09/18 08:33:20;;;;;;;23.10;14.15;;;15.70;99.90;;;;;;6115217;23;20006;-87
2021/09/18 08:36:01;;;;;;;19.30;13.35;;;15.70;99.90;;;;;;6139472;23;20017;-87
2021/09/18 08:38:27;;;;;;;25.35;19.02;;;15.70;99.90;;;;;;6115424;23;20017;-88
2021/09/18 08:40:54;;;;;;;23.65;16.73;;;15.50;99.90;;;;;;6091104;23;20006;-86
2021/09/18 08:43:21;;;;;;;22.15;15.45;;;15.70;99.90;;;;;;6090815;23;20063;-86
2021/09/18 08:45:47;;;;;;;23.15;16.73;;;15.60;99.90;;;;;;6114788;23;20017;-87
2021/09/18 08:48:16;;;;;;;26.13;17.90;;;15.70;99.90;;;;;;6115266;23;20006;-87
2021/09/18 08:50:42;;;;;;;23.73;17.80;;;15.80;99.90;;;;;;6115011;23;20005;-87
2021/09/18 08:53:08;;;;;;;26.38;17.92;;;15.60;99.90;;;;;;6114905;23;20043;-87
2021/09/18 08:56:08;;;;;;;23.13;16.20;;;15.80;99.90;;;;;;6091328;23;20041;-89
2021/09/18 08:58:33;;;;;;;25.45;18.00;;;15.70;99.90;;;;;;6083165;23;20014;-88
2021/09/18 09:00:59;;;;;;;27.98;17.77;;;15.80;99.90;;;;;;6091101;23;20010;-89
2021/09/18 09:03:27;;;;;;;25.80;18.45;;;15.70;99.90;;;;;;6090900;23;20006;-89
2021/09/18 09:06:09;;;;;;;27.83;18.65;;;15.90;99.90;;;;;;6115172;23;20030;-89
2021/09/18 09:08:37;;;;;;;25.02;17.63;;;16.00;99.90;;;;;;6114977;23;20105;-88
2021/09/18 09:11:19;;;;;;;24.75;17.55;;;16.20;99.90;;;;;;6090393;23;20006;-90
2021/09/18 09:13:53;;;;;;;28.73;18.70;;;16.30;99.90;;;;;;6090390;23;20013;-88
2021/09/18 09:16:23;;;;;;;24.55;17.25;;;16.40;99.90;;;;;;6090607;23;20061;-88
2021/09/18 09:18:49;;;;;;;25.73;18.23;;;16.40;99.90;;;;;;6091857;23;20042;-87
2021/09/18 09:21:24;;;;;;;26.60;18.60;;;16.50;99.90;;;;;;6090469;23;20006;-87
2021/09/18 09:24:09;;;;;;;25.40;18.20;;;16.70;99.90;;;;;;6114822;23;20017;-88
2021/09/18 09:27:03;;;;;;;23.88;17.35;;;16.80;99.90;;;;;;6090656;23;20005;-88
2021/09/18 09:29:59;;;;;;;24.17;17.38;;;16.90;99.90;;;;;;6090683;23;20041;-88
2021/09/18 09:32:33;;;;;;;24.40;17.40;;;16.90;99.90;;;;;;6101787;23;20010;-88
2021/09/18 09:35:08;;;;;;;23.42;17.45;;;17.10;99.90;;;;;;6090418;23;20083;-88
2021/09/18 09:37:34;;;;;;;24.63;17.00;;;17.10;99.90;;;;;;6090417;23;20010;-86
2021/09/18 09:40:02;;;;;;;27.27;18.90;;;16.80;99.90;;;;;;6114572;23;20012;-87
2021/09/18 09:42:32;;;;;;;32.80;22.80;;;16.80;99.90;;;;;;6090202;23;20065;-87
2021/09/18 09:45:24;;;;;;;30.25;21.92;;;16.60;99.90;;;;;;6091586;23;20025;-86
2021/09/18 09:48:03;;;;;;;22.98;17.17;;;16.90;99.90;;;;;;6114119;23;20014;-87
2021/09/18 09:50:29;;;;;;;25.67;18.35;;;17.10;99.90;;;;;;6116558;23;20016;-87
2021/09/18 09:52:56;;;;;;;25.98;18.85;;;17.30;99.90;;;;;;6092508;23;20006;-85
2021/09/18 09:55:27;;;;;;;29.20;20.38;;;17.40;99.90;;;;;;6092484;23;20032;-88
2021/09/18 09:58:02;;;;;;;25.80;17.42;;;17.50;99.90;;;;;;6142708;23;20084;-86
2021/09/18 10:00:39;;;;;;;26.15;19.17;;;17.60;99.90;;;;;;6116763;23;20030;-87
2021/09/18 10:03:05;;;;;;;25.83;19.05;;;17.70;99.90;;;;;;6116607;23;20013;-87
2021/09/18 10:05:35;;;;;;;28.48;19.65;;;18.00;99.90;;;;;;6116486;23;20017;-86
2021/09/18 10:08:02;;;;;;;28.60;21.17;;;17.90;99.90;;;;;;6092569;23;20034;-87
2021/09/18 10:10:28;;;;;;;27.85;20.05;;;17.80;99.90;;;;;;6091941;23;20510;-87
2021/09/18 10:12:56;;;;;;;30.45;21.55;;;17.90;99.90;;;;;;6116637;23;20002;-86
2021/09/18 10:15:25;;;;;;;28.80;20.88;;;17.70;99.90;;;;;;6092091;23;20116;-86
2021/09/18 10:17:53;;;;;;;31.70;22.10;;;17.60;99.90;;;;;;6142294;23;20013;-87
2021/09/18 10:25:39;;;;;;;36.53;25.42;;;17.50;99.90;;;;;;6115902;23;20129;-86
2021/09/18 10:28:09;;;;;;;32.70;22.02;;;17.80;99.90;;;;;;6116454;23;20006;-85
2021/09/18 10:31:00;;;;;;;29.45;21.20;;;18.10;99.90;;;;;;6116213;23;20006;-85
2021/09/18 10:33:37;;;;;;;33.60;21.95;;;18.40;99.90;;;;;;6091701;23;20061;-87
2021/09/18 10:36:12;;;;;;;33.47;21.23;;;18.70;99.90;;;;;;6091979;23;20010;-85
2021/09/18 10:38:51;;;;;;;28.13;18.30;;;19.00;99.90;;;;;;6091990;23;20053;-84
2021/09/18 10:41:19;;;;;;;28.87;20.60;;;19.20;99.90;;;;;;6091797;23;20029;-86
2021/09/18 10:44:04;;;;;;;30.00;21.30;;;19.40;99.90;;;;;;6115861;23;20025;-85
2021/09/18 10:46:46;;;;;;;30.85;20.77;;;19.40;99.90;;;;;;6080620;23;20038;-86
2021/09/18 10:49:29;;;;;;;26.35;18.80;;;19.40;99.90;;;;;;6057287;23;20038;-84
2021/09/18 10:52:15;;;;;;;28.85;20.83;;;19.80;99.90;;;;;;6056997;23;20014;-85
2021/09/18 10:55:02;;;;;;;29.98;21.05;;;19.80;99.90;;;;;;6056928;23;20015;-87
2021/09/18 10:57:48;;;;;;;26.00;19.05;;;20.10;99.90;;;;;;6023251;23;20095;-86
2021/09/18 11:00:17;;;;;;;29.08;20.67;;;20.10;99.90;;;;;;6056535;23;20011;-85
2021/09/18 11:02:47;;;;;;;27.80;19.92;;;19.60;99.90;;;;;;6032778;23;20011;-86
2021/09/18 11:05:31;;;;;;;25.50;18.42;;;19.70;99.90;;;;;;6056412;23;20022;-87
2021/09/18 11:08:03;;;;;;;26.02;19.05;;;19.80;99.90;;;;;;6056279;23;20011;-85
2021/09/18 11:10:28;;;;;;;25.00;18.80;;;19.80;99.90;;;;;;6055918;23;20019;-86
2021/09/18 11:13:06;;;;;;;26.90;19.58;;;19.80;99.90;;;;;;6056766;23;20136;-91
2021/09/18 11:15:43;;;;;;;27.77;19.40;;;19.60;99.90;;;;;;6056367;23;20017;-89
2021/09/18 11:18:13;;;;;;;24.42;17.95;;;19.80;99.90;;;;;;6056666;23;20379;-85
2021/09/18 11:20:39;;;;;;;24.95;17.05;;;20.00;99.90;;;;;;6080720;23;20070;-85
2021/09/18 11:23:05;;;;;;;25.35;18.17;;;20.00;99.90;;;;;;6065293;23;20507;-85
2021/09/18 11:25:43;;;;;;;25.45;19.17;;;20.00;99.90;;;;;;6085280;23;20022;-87
2021/09/18 11:28:16;;;;;;;25.63;18.48;;;20.10;99.90;;;;;;6085836;23;20021;-88
2021/09/18 11:30:52;;;;;;;26.75;19.60;;;20.10;99.90;;;;;;6085583;23;20014;-85
2021/09/18 11:33:20;;;;;;;24.75;17.90;;;20.20;99.90;;;;;;6085748;23;20007;-85
2021/09/18 11:36:01;;;;;;;24.50;16.85;;;20.70;99.90;;;;;;6085477;23;20033;-85
2021/09/18 11:38:33;;;;;;;21.08;15.48;;;20.80;99.90;;;;;;6085563;23;20038;-85
2021/09/18 11:41:10;;;;;;;14.15;12.27;;;20.80;99.90;;;;;;6084857;23;20131;-84
2021/09/18 11:44:06;;;;;;;17.70;13.23;;;21.10;99.90;;;;;;6110782;23;20006;-86
2021/09/18 11:46:31;;;;;;;14.18;11.13;;;21.20;99.90;;;;;;6043368;23;20023;-84
2021/09/18 11:49:02;;;;;;;14.77;11.30;;;20.80;99.90;;;;;;6079277;23;20143;-84
2021/09/18 11:51:27;;;;;;;13.60;9.30;;;21.20;99.90;;;;;;6031538;23;20097;-87
2021/09/18 11:54:05;;;;;;;25.55;18.63;;;21.30;99.90;;;;;;6055849;23;20037;-85
2021/09/18 11:56:32;;;;;;;23.75;17.63;;;21.10;99.90;;;;;;6031116;23;20041;-86
2021/09/18 11:59:08;;;;;;;20.10;16.25;;;20.80;99.90;;;;;;6031597;23;20011;-90
2021/09/18 12:01:35;;;;;;;19.45;15.75;;;20.30;99.90;;;;;;6079439;23;20007;-87
2021/09/18 12:04:01;;;;;;;20.25;15.00;;;20.20;99.90;;;;;;6031496;23;20216;-84
2021/09/18 12:06:29;;;;;;;21.25;17.17;;;20.40;99.90;;;;;;6031113;23;20015;-85
2021/09/18 12:08:55;;;;;;;18.30;14.05;;;20.40;99.90;;;;;;6031808;23;20011;-86
2021/09/18 12:11:21;;;;;;;17.77;14.10;;;20.40;99.90;;;;;;6054825;23;20006;-85
2021/09/18 12:13:49;;;;;;;15.77;11.45;;;20.60;99.90;;;;;;6031275;23;20019;-85
2021/09/18 12:16:18;;;;;;;12.95;10.35;;;20.80;99.90;;;;;;6030679;23;20018;-88
2021/09/18 12:18:49;;;;;;;15.02;11.80;;;21.10;99.90;;;;;;6032990;23;20011;-88
2021/09/18 12:21:23;;;;;;;13.27;9.90;;;21.30;99.90;;;;;;6032778;23;20007;-86
2021/09/18 12:23:53;;;;;;;13.23;10.63;;;21.50;99.90;;;;;;6081124;23;20149;-87
2021/09/18 12:26:19;;;;;;;29.23;21.08;;;21.40;99.90;;;;;;6114572;23;20006;-82
2021/09/18 12:28:46;;;;;;;23.08;19.23;;;20.70;99.90;;;;;;6114232;23;20016;-84
2021/09/18 12:31:16;;;;;;;26.10;19.08;;;20.80;99.90;;;;;;6114266;23;20006;-84
2021/09/18 12:33:42;;;;;;;16.58;13.52;;;20.90;99.90;;;;;;6114399;23;20006;-84
2021/09/18 12:36:14;;;;;;;12.23;8.77;;;21.40;99.90;;;;;;6114103;23;20021;-83
2021/09/18 12:38:42;;;;;;;12.25;10.43;;;21.60;99.90;;;;;;6114410;23;20323;-85
2021/09/18 12:41:14;;;;;;;14.98;11.50;;;21.30;99.90;;;;;;6113723;23;20070;-82